首页
METAR-TAF:

METAR-TAF

机场 :

空军基地

Landivisiau, 法国

纬度: 48-31N, 经度: 004-09W, 海拔: 106米

当前天气观测

该预报发布于31分钟前的01:00 UTC
风速17节,风向西南,有时为29节阵风
温度 14°C
湿度 88%
气压 1019 hPa
能見度: 6000
多云层高于1100英尺
多云层高于1600英尺
多云层高于2500英尺
小雨, 毛毛雨

METAR: LFRJ 300100Z AUTO 23017G29KT 6000 -RADZ BKN011 BKN016 BKN025 14/12 Q1019

时间: 02:31 (01:31 UTC)

预报

该预报发布于8小时和31分钟前的17:00 UTC
预报有效从29日的 18点(UTC)到 30日的 03点(UTC)
风速17节,风向西转西南,有时为27节阵风
能见度10公里或以上
多云层高于1400英尺
阴天层高于4000英尺
短暂存在
从 29日的 18点(UTC)到 29日的 21点(UTC)
多云层高于700英尺
成为
从 29日的 21点(UTC)到 29日的 23点(UTC)
多云层高于700英尺

TAF: LFRJ 291700Z 2918/3003 24017G27KT 9999 BKN014 OVC040 TEMPO 2918/2921 BKN007 BECMG 2921/2923 BKN007

超过4000个机场的气象观测和天气预报(METAR&TAF报告)。

可查询的气象台以黄色和红色小点在地图上表示。

将鼠标移到小点上方,可查看气象台名称。

然后点击查看天气观测和预报。

如需切换地图:点击带黑十字的绿色按钮放大地图;点击带横线的绿色按钮缩小地图;或者点击绿色箭头查看邻近地区的地图。


METAR-TAF: